createdAt,value
2022-09-23T00:00:23.596Z,101318.53
2022-09-23T00:02:28.887Z,101316.72
2022-09-23T00:04:32.854Z,101315.88
2022-09-23T00:06:36.530Z,101317.72
2022-09-23T00:08:41.613Z,101312.47
2022-09-23T00:10:45.568Z,101315.22
2022-09-23T00:12:49.588Z,101313.53
2022-09-23T00:14:53.280Z,101317.22
2022-09-23T00:16:57.511Z,101318.25
2022-09-23T00:19:03.138Z,101322.88
2022-09-23T00:21:07.415Z,101319.63
2022-09-23T00:23:11.083Z,101320.69
2022-09-23T00:25:14.545Z,101314.63
2022-09-23T00:27:21.218Z,101318.50
2022-09-23T00:29:25.036Z,101321.88
2022-09-23T00:31:28.920Z,101326.59
2022-09-23T00:33:32.397Z,101324.69
2022-09-23T00:35:38.770Z,101328.13
2022-09-23T00:37:42.221Z,101329.84
2022-09-23T00:39:46.796Z,101325.38
2022-09-23T00:41:50.809Z,101328.13
2022-09-23T00:43:56.607Z,101325.66
2022-09-23T00:46:00.352Z,101322.22
2022-09-23T00:48:05.240Z,101323.16
2022-09-23T00:50:14.326Z,101325.81
2022-09-23T00:52:21.850Z,101322.31
2022-09-23T00:54:27.850Z,101322.41
2022-09-23T00:56:32.580Z,101323.34
2022-09-23T00:58:40.792Z,101321.63
2022-09-23T01:00:44.298Z,101316.31
2022-09-23T01:02:47.930Z,101323.25
2022-09-23T01:04:52.750Z,101320.69
2022-09-23T01:06:56.362Z,101327.81
2022-09-23T01:09:01.035Z,101322.50
2022-09-23T01:11:16.044Z,101325.25
2022-09-23T01:13:25.589Z,101332.44
2022-09-23T01:15:39.440Z,101332.63
2022-09-23T01:17:52.304Z,101339.78
2022-09-23T01:20:45.390Z,101336.56
2022-09-23T01:22:57.307Z,101344.53
2022-09-23T01:25:24.021Z,101342.81
2022-09-23T01:27:44.533Z,101339.38
2022-09-23T01:30:11.213Z,101338.63
2022-09-23T01:32:21.690Z,101337.78
2022-09-23T01:34:32.246Z,101338.72
2022-09-23T01:36:41.574Z,101337.94
2022-09-23T01:38:54.779Z,101346.84
2022-09-23T01:41:04.789Z,101344.25
2022-09-23T01:43:15.767Z,101342.59
2022-09-23T01:45:24.071Z,101339.94
2022-09-23T01:47:34.634Z,101334.53
2022-09-23T01:49:45.207Z,101338.13
2022-09-23T01:51:52.983Z,101338.97
2022-09-23T01:54:02.753Z,101338.22
2022-09-23T01:56:12.925Z,101340.97
2022-09-23T01:58:24.060Z,101341.03
2022-09-23T02:00:33.012Z,101342.06
2022-09-23T02:02:42.203Z,101342.06
2022-09-23T02:04:50.629Z,101333.34
2022-09-23T02:06:59.553Z,101341.38
2022-09-23T02:09:07.143Z,101340.53
2022-09-23T02:11:15.391Z,101336.25
2022-09-23T02:13:22.245Z,101330.09
2022-09-23T02:15:32.085Z,101338.91
2022-09-23T02:17:44.266Z,101330.97
2022-09-23T02:19:52.616Z,101331.88
2022-09-23T02:22:02.487Z,101327.53
2022-09-23T02:24:12.416Z,101328.50
2022-09-23T02:26:20.824Z,101320.66
2022-09-23T02:28:31.237Z,101316.38
2022-09-23T02:30:45.020Z,101324.31
2022-09-23T02:32:56.312Z,101325.28
2022-09-23T02:35:07.319Z,101321.03
2022-09-23T02:37:24.946Z,101318.53
2022-09-23T02:39:37.336Z,101319.47
2022-09-23T02:41:50.392Z,101324.00
2022-09-23T02:44:01.107Z,101324.94
2022-09-23T02:46:06.432Z,101323.25
2022-09-23T02:48:18.092Z,101326.91
2022-09-23T02:50:22.916Z,101328.69
2022-09-23T02:52:26.997Z,101329.75
2022-09-23T02:54:32.919Z,101332.44
2022-09-23T02:56:37.500Z,101328.22
2022-09-23T02:58:41.229Z,101332.72
2022-09-23T03:01:02.325Z,101329.22
2022-09-23T03:03:31.767Z,101330.16
2022-09-23T03:05:43.501Z,101326.66
2022-09-23T03:07:58.917Z,101328.53
2022-09-23T03:10:12.888Z,101332.03
2022-09-23T03:12:25.425Z,101338.44
2022-09-23T03:14:38.355Z,101334.22
2022-09-23T03:16:48.006Z,101329.13
2022-09-23T03:19:00.096Z,101323.06
2022-09-23T03:21:09.268Z,101329.19
2022-09-23T03:23:16.227Z,101332.69
2022-09-23T03:25:24.083Z,101323.06
2022-09-23T03:27:31.708Z,101334.50
2022-09-23T03:29:37.657Z,101331.94
2022-09-23T03:31:42.639Z,101326.81
2022-09-23T03:33:51.980Z,101333.22
2022-09-23T03:36:19.660Z,101332.44
2022-09-23T03:38:26.485Z,101330.97
2022-09-23T03:40:33.624Z,101329.44
2022-09-23T03:42:39.507Z,101333.94
2022-09-23T03:44:45.685Z,101331.22
2022-09-23T03:46:51.006Z,101330.28
2022-09-23T03:48:56.625Z,101332.84
2022-09-23T03:51:10.722Z,101338.06
2022-09-23T03:53:14.834Z,101336.34
2022-09-23T03:55:19.471Z,101331.06
2022-09-23T03:57:23.722Z,101338.91
2022-09-23T03:59:28.077Z,101331.91
2022-09-23T04:01:31.921Z,101328.31
2022-09-23T04:03:35.477Z,101327.47
2022-09-23T04:05:39.360Z,101322.19
2022-09-23T04:07:44.710Z,101325.59
2022-09-23T04:09:48.639Z,101329.97
2022-09-23T04:11:52.413Z,101326.44
2022-09-23T04:13:57.371Z,101328.25
2022-09-23T04:16:01.386Z,101332.59
2022-09-23T04:18:05.271Z,101335.34
2022-09-23T04:20:09.850Z,101336.28
2022-09-23T04:22:13.967Z,101343.28
2022-09-23T04:24:19.353Z,101339.75
2022-09-23T04:26:22.999Z,101339.84
2022-09-23T04:28:26.581Z,101336.44
2022-09-23T04:30:30.287Z,101338.22
2022-09-23T04:32:33.959Z,101336.53
2022-09-23T04:34:37.498Z,101343.50
2022-09-23T04:36:41.293Z,101342.66
2022-09-23T04:38:46.329Z,101343.69
2022-09-23T04:40:51.900Z,101340.28
2022-09-23T04:42:55.735Z,101343.84
2022-09-23T04:44:59.391Z,101344.88
2022-09-23T04:47:04.569Z,101341.44
2022-09-23T04:49:08.531Z,101350.25
2022-09-23T04:51:14.633Z,101361.50
2022-09-23T04:53:19.379Z,101352.72
2022-09-23T04:55:23.139Z,101350.06
2022-09-23T04:57:28.503Z,101356.31
2022-09-23T04:59:32.473Z,101351.97
2022-09-23T05:01:36.964Z,101352.91
2022-09-23T05:03:41.252Z,101352.91
2022-09-23T05:05:44.899Z,101351.00
2022-09-23T05:07:49.078Z,101352.91
2022-09-23T05:09:52.860Z,101359.19
2022-09-23T05:11:56.666Z,101356.63
2022-09-23T05:14:01.911Z,101350.47
2022-09-23T05:16:08.297Z,101352.28
2022-09-23T05:18:12.202Z,101354.91
2022-09-23T05:20:15.884Z,101354.00
2022-09-23T05:22:20.951Z,101354.66
2022-09-23T05:24:25.254Z,101358.03
2022-09-23T05:26:31.250Z,101352.63
2022-09-23T05:28:36.362Z,101352.56
2022-09-23T05:30:42.092Z,101354.28
2022-09-23T05:32:45.793Z,101353.44
2022-09-23T05:34:49.514Z,101353.44
2022-09-23T05:36:53.651Z,101356.16
2022-09-23T05:38:58.815Z,101358.03
2022-09-23T05:41:04.072Z,101363.31
2022-09-23T05:43:07.987Z,101358.09
2022-09-23T05:45:11.871Z,101363.31
2022-09-23T05:47:17.178Z,101358.03
2022-09-23T05:49:29.549Z,101363.41
2022-09-23T05:51:41.765Z,101366.03
2022-09-23T05:53:46.186Z,101367.06
2022-09-23T05:55:49.735Z,101372.53
2022-09-23T05:57:53.306Z,101369.09
2022-09-23T05:59:57.326Z,101371.66
2022-09-23T06:02:01.460Z,101372.53
2022-09-23T06:04:09.259Z,101375.94
2022-09-23T06:06:15.822Z,101376.72
2022-09-23T06:08:19.700Z,101375.84
2022-09-23T06:10:23.392Z,101381.13
2022-09-23T06:12:27.351Z,101375.94
2022-09-23T06:14:31.120Z,101383.03
2022-09-23T06:16:36.567Z,101388.25
2022-09-23T06:18:41.308Z,101389.78
2022-09-23T06:20:46.516Z,101387.94
2022-09-23T06:22:54.730Z,101382.56
2022-09-23T06:24:59.276Z,101389.41
2022-09-23T06:27:03.140Z,101390.06
2022-09-23T06:29:11.789Z,101388.28
2022-09-23T06:31:17.424Z,101386.41
2022-09-23T06:33:33.867Z,101388.03
2022-09-23T06:35:40.585Z,101393.06
2022-09-23T06:37:46.294Z,101390.28
2022-09-23T06:39:50.269Z,101392.84
2022-09-23T06:41:54.546Z,101394.56
2022-09-23T06:43:59.608Z,101402.25
2022-09-23T06:46:05.139Z,101398.41
2022-09-23T06:48:10.372Z,101395.44
2022-09-23T06:50:14.110Z,101402.28
2022-09-23T06:52:17.830Z,101403.06
2022-09-23T06:54:23.024Z,101399.28
2022-09-23T06:56:26.603Z,101408.88
2022-09-23T06:58:30.535Z,101403.41
2022-09-23T07:00:34.125Z,101406.00
2022-09-23T07:02:37.621Z,101409.41
2022-09-23T07:04:41.519Z,101405.56
2022-09-23T07:06:45.421Z,101412.34
2022-09-23T07:08:49.073Z,101401.50
2022-09-23T07:10:54.991Z,101406.34
2022-09-23T07:13:03.441Z,101413.03
2022-09-23T07:15:08.137Z,101417.06
2022-09-23T07:17:12.847Z,101422.88
2022-09-23T07:19:16.924Z,101430.47
2022-09-23T07:21:21.351Z,101429.25
2022-09-23T07:23:25.328Z,101425.56
2022-09-23T07:25:29.540Z,101427.03
2022-09-23T07:27:34.976Z,101425.66
2022-09-23T07:29:47.781Z,101426.06
2022-09-23T07:31:54.020Z,101427.31
2022-09-23T07:34:01.367Z,101430.31
2022-09-23T07:36:10.983Z,101428.72
2022-09-23T07:38:14.967Z,101427.22
2022-09-23T07:40:18.926Z,101432.94
2022-09-23T07:42:22.528Z,101424.44
2022-09-23T07:44:27.858Z,101430.19
2022-09-23T07:46:33.757Z,101430.69
2022-09-23T07:48:38.337Z,101433.91
2022-09-23T07:50:42.346Z,101435.44
2022-09-23T07:52:46.648Z,101436.22
2022-09-23T07:54:50.667Z,101441.31
2022-09-23T07:56:54.461Z,101442.97
2022-09-23T07:59:01.931Z,101434.72
2022-09-23T08:01:09.411Z,101434.50
2022-09-23T08:03:13.195Z,101430.06
2022-09-23T08:05:17.111Z,101435.19
2022-09-23T08:07:21.049Z,101436.81
2022-09-23T08:09:27.620Z,101433.94
2022-09-23T08:11:31.830Z,101435.28
2022-09-23T08:13:35.525Z,101435.72
2022-09-23T08:15:39.173Z,101426.34
2022-09-23T08:17:44.768Z,101434.59
2022-09-23T08:19:48.848Z,101436.56
2022-09-23T08:21:54.787Z,101440.88
2022-09-23T08:23:58.815Z,101446.16
2022-09-23T08:26:04.432Z,101438.44
2022-09-23T08:28:08.418Z,101450.91
2022-09-23T08:30:13.437Z,101444.81
2022-09-23T08:32:17.407Z,101444.06
2022-09-23T08:34:23.796Z,101442.25
2022-09-23T08:36:27.799Z,101443.97
2022-09-23T08:38:31.876Z,101442.91
2022-09-23T08:40:38.382Z,101448.97
2022-09-23T08:42:45.781Z,101444.84
2022-09-23T08:44:53.202Z,101453.63
2022-09-23T08:47:12.262Z,101446.63
2022-09-23T08:49:25.501Z,101448.16
2022-09-23T08:51:35.937Z,101451.41
2022-09-23T08:53:40.858Z,101442.34
2022-09-23T08:55:48.837Z,101445.22
2022-09-23T08:58:24.663Z,101444.81
2022-09-23T09:00:37.413Z,101445.84
2022-09-23T09:02:41.219Z,101451.31
2022-09-23T09:04:49.937Z,101447.66
2022-09-23T09:07:12.405Z,101448.06
2022-09-23T09:09:28.189Z,101443.97
2022-09-23T09:11:37.701Z,101442.78
2022-09-23T09:13:54.954Z,101443.22
2022-09-23T09:16:18.812Z,101444.03
2022-09-23T09:18:32.857Z,101444.63
2022-09-23T09:20:43.243Z,101445.19
2022-09-23T09:22:55.289Z,101450.78
2022-09-23T09:25:06.295Z,101445.84
2022-09-23T09:27:14.059Z,101454.63
2022-09-23T09:29:34.958Z,101455.88
2022-09-23T09:31:43.455Z,101452.88
2022-09-23T09:33:53.093Z,101463.38
2022-09-23T09:36:10.288Z,101448.53
2022-09-23T09:38:14.561Z,101449.72
2022-09-23T09:40:20.536Z,101453.19
2022-09-23T09:42:28.834Z,101456.91
2022-09-23T09:44:38.308Z,101450.84
2022-09-23T09:46:56.239Z,101447.59
2022-09-23T09:49:06.121Z,101451.59
2022-09-23T09:51:23.588Z,101451.41
2022-09-23T09:53:29.792Z,101439.59
2022-09-23T09:55:34.108Z,101442.78
2022-09-23T09:57:44.471Z,101443.31
2022-09-23T09:59:48.754Z,101443.44
2022-09-23T10:02:23.884Z,101439.19
2022-09-23T10:04:36.871Z,101444.28
2022-09-23T10:06:43.157Z,101435.28
2022-09-23T10:09:06.753Z,101447.38
2022-09-23T10:11:16.201Z,101445.09
2022-09-23T10:13:25.354Z,101439.53
2022-09-23T10:15:34.915Z,101441.25
2022-09-23T10:17:41.671Z,101450.22
2022-09-23T10:19:49.055Z,101447.81
2022-09-23T10:22:00.211Z,101446.44
2022-09-23T10:24:06.935Z,101440.53
2022-09-23T10:26:13.224Z,101452.03
2022-09-23T10:28:44.210Z,101443.84
2022-09-23T10:31:05.963Z,101446.31
2022-09-23T10:33:28.695Z,101449.09
2022-09-23T10:35:33.262Z,101449.50
2022-09-23T10:37:42.234Z,101444.66
2022-09-23T10:40:03.750Z,101448.41
2022-09-23T10:42:45.960Z,101434.91
2022-09-23T10:45:20.610Z,101439.88
2022-09-23T10:47:35.764Z,101437.97
2022-09-23T10:50:05.256Z,101437.75
2022-09-23T10:52:27.548Z,101440.06
2022-09-23T10:54:42.098Z,101440.44
2022-09-23T10:56:49.857Z,101437.44
2022-09-23T10:59:19.430Z,101432.94
2022-09-23T11:01:36.329Z,101434.28
2022-09-23T11:04:18.422Z,101445.34
2022-09-23T11:06:32.353Z,101445.88
2022-09-23T11:08:53.179Z,101439.22
2022-09-23T11:11:12.821Z,101435.97
2022-09-23T11:13:28.424Z,101442.47
2022-09-23T11:15:44.310Z,101442.91
2022-09-23T11:18:12.168Z,101440.13
2022-09-23T11:20:34.719Z,101437.72
2022-09-23T11:22:57.410Z,101434.53
2022-09-23T11:25:23.386Z,101440.38
2022-09-23T11:27:45.885Z,101437.19
2022-09-23T11:30:02.333Z,101436.88
2022-09-23T11:32:27.921Z,101430.25
2022-09-23T11:34:52.703Z,101429.16
2022-09-23T11:37:03.445Z,101428.44
2022-09-23T11:39:15.352Z,101425.88
2022-09-23T11:41:24.300Z,101422.34
2022-09-23T11:43:31.979Z,101429.25
2022-09-23T11:45:40.933Z,101427.81
2022-09-23T11:47:52.213Z,101423.69
2022-09-23T11:49:59.932Z,101419.31
2022-09-23T11:52:10.234Z,101422.47
2022-09-23T11:54:21.710Z,101416.63
2022-09-23T11:56:35.987Z,101416.28
2022-09-23T11:58:51.416Z,101410.19
2022-09-23T12:01:07.192Z,101409.53
2022-09-23T12:03:19.294Z,101411.94
2022-09-23T12:05:27.904Z,101413.66
2022-09-23T12:07:45.899Z,101405.00
2022-09-23T12:10:00.015Z,101407.66
2022-09-23T12:12:13.688Z,101416.47
2022-09-23T12:14:27.335Z,101406.81
2022-09-23T12:16:53.955Z,101404.53
2022-09-23T12:19:10.737Z,101405.06
2022-09-23T12:21:50.553Z,101405.13
2022-09-23T12:24:18.445Z,101398.47
2022-09-23T12:26:26.095Z,101395.19
2022-09-23T12:28:35.037Z,101394.50
2022-09-23T12:30:42.308Z,101389.63
2022-09-23T12:32:46.708Z,101396.69
2022-09-23T12:34:53.081Z,101400.34
2022-09-23T12:37:04.561Z,101398.16
2022-09-23T12:39:17.412Z,101402.28
2022-09-23T12:41:26.225Z,101391.84
2022-09-23T12:43:32.049Z,101395.25
2022-09-23T12:45:39.998Z,101391.38
2022-09-23T12:47:45.551Z,101393.28
2022-09-23T12:49:51.140Z,101389.41
2022-09-23T12:52:27.071Z,101395.00
2022-09-23T12:54:31.146Z,101379.19
2022-09-23T12:57:03.826Z,101387.47
2022-09-23T12:59:29.019Z,101381.41
2022-09-23T13:01:38.580Z,101371.78
2022-09-23T13:04:05.185Z,101382.38
2022-09-23T13:06:29.723Z,101374.72
2022-09-23T13:08:37.262Z,101376.03
2022-09-23T13:10:45.974Z,101375.78
2022-09-23T13:12:50.338Z,101379.91
2022-09-23T13:14:58.427Z,101372.50
2022-09-23T13:17:02.409Z,101368.97
2022-09-23T13:19:28.632Z,101368.13
2022-09-23T13:22:09.357Z,101364.09
2022-09-23T13:24:21.022Z,101361.19
2022-09-23T13:26:24.875Z,101361.19
2022-09-23T13:28:37.067Z,101363.41
2022-09-23T13:30:52.284Z,101366.56
2022-09-23T13:33:06.649Z,101360.25
2022-09-23T13:35:24.247Z,101364.50
2022-09-23T13:37:42.467Z,101361.91
2022-09-23T13:39:46.417Z,101364.34
2022-09-23T13:41:50.705Z,101367.97
2022-09-23T13:43:59.058Z,101367.25
2022-09-23T13:46:05.834Z,101359.97
2022-09-23T13:48:13.622Z,101362.00
2022-09-23T13:50:23.623Z,101360.41
2022-09-23T13:52:30.246Z,101360.91
2022-09-23T13:54:36.584Z,101352.28
2022-09-23T13:56:50.740Z,101359.78
2022-09-23T13:58:56.936Z,101356.63
2022-09-23T14:01:01.482Z,101363.06
2022-09-23T14:03:18.388Z,101362.06
2022-09-23T14:05:26.617Z,101355.53
2022-09-23T14:07:30.595Z,101345.22
2022-09-23T14:09:36.761Z,101350.94
2022-09-23T14:11:40.562Z,101345.97
2022-09-23T14:13:45.687Z,101347.56
2022-09-23T14:15:50.646Z,101344.88
2022-09-23T14:17:57.276Z,101347.81
2022-09-23T14:20:01.016Z,101338.09
2022-09-23T14:22:09.253Z,101340.63
2022-09-23T14:24:20.993Z,101341.38
2022-09-23T14:26:25.621Z,101333.94
2022-09-23T14:28:30.093Z,101337.88
2022-09-23T14:30:35.578Z,101338.94
2022-09-23T14:32:41.644Z,101334.56
2022-09-23T14:34:48.604Z,101336.06
2022-09-23T14:37:09.715Z,101338.84
2022-09-23T14:39:15.523Z,101334.69
2022-09-23T14:41:24.184Z,101325.00
2022-09-23T14:43:30.374Z,101324.88
2022-09-23T14:45:37.955Z,101321.72
2022-09-23T14:47:48.516Z,101328.91
2022-09-23T14:50:07.107Z,101321.84
2022-09-23T14:52:13.161Z,101326.66
2022-09-23T14:54:34.596Z,101326.28
2022-09-23T14:56:43.959Z,101319.50
2022-09-23T14:58:54.028Z,101328.88
2022-09-23T15:01:00.609Z,101322.59
2022-09-23T15:03:06.196Z,101330.59
2022-09-23T15:05:19.164Z,101331.66
2022-09-23T15:07:24.084Z,101340.28
2022-09-23T15:09:32.388Z,101341.38
2022-09-23T15:11:37.197Z,101353.19
2022-09-23T15:13:44.400Z,101345.13
2022-09-23T15:15:48.662Z,101338.78
2022-09-23T15:17:52.730Z,101349.72
2022-09-23T15:19:59.231Z,101357.09
2022-09-23T15:22:02.887Z,101362.13
2022-09-23T15:24:06.977Z,101369.81
2022-09-23T15:26:15.498Z,101373.84
2022-09-23T15:28:23.763Z,101375.28
2022-09-23T15:30:27.931Z,101381.84
2022-09-23T15:32:31.521Z,101386.59
2022-09-23T15:34:35.315Z,101380.31
2022-09-23T15:36:39.020Z,101374.66
2022-09-23T15:38:44.324Z,101382.13
2022-09-23T15:40:48.599Z,101385.97
2022-09-23T15:42:57.604Z,101382.56
2022-09-23T15:45:01.238Z,101376.47
2022-09-23T15:47:05.139Z,101378.19
2022-09-23T15:49:16.340Z,101386.91
2022-09-23T15:51:20.142Z,101379.03
2022-09-23T15:53:25.986Z,101388.09
2022-09-23T15:55:30.075Z,101386.19
2022-09-23T15:57:33.916Z,101387.91
2022-09-23T15:59:38.995Z,101387.91
2022-09-23T16:01:44.751Z,101385.97
2022-09-23T16:03:48.839Z,101385.97
2022-09-23T16:05:53.467Z,101390.44
2022-09-23T16:07:57.491Z,101393.97
2022-09-23T16:10:01.467Z,101396.28
2022-09-23T16:12:05.412Z,101393.53
2022-09-23T16:14:14.609Z,101405.03
2022-09-23T16:16:21.425Z,101394.50
2022-09-23T16:18:25.782Z,101398.13
2022-09-23T16:20:31.783Z,101399.81
2022-09-23T16:22:36.478Z,101399.94
2022-09-23T16:24:41.545Z,101399.06
2022-09-23T16:26:47.019Z,101408.22
2022-09-23T16:28:52.970Z,101410.38
2022-09-23T16:30:57.063Z,101414.13
2022-09-23T16:33:03.409Z,101417.72
2022-09-23T16:35:08.735Z,101423.91
2022-09-23T16:37:18.194Z,101432.00
2022-09-23T16:39:23.039Z,101432.34
2022-09-23T16:41:28.800Z,101432.63
2022-09-23T16:43:39.648Z,101434.66
2022-09-23T16:45:43.592Z,101426.88
2022-09-23T16:47:49.889Z,101426.03
2022-09-23T16:49:55.117Z,101426.47
2022-09-23T16:51:59.921Z,101419.41
2022-09-23T16:54:03.775Z,101422.19
2022-09-23T16:56:09.788Z,101422.38
2022-09-23T16:58:13.565Z,101418.88
2022-09-23T17:00:34.952Z,101422.38
2022-09-23T17:02:55.760Z,101414.50
2022-09-23T17:05:01.989Z,101428.69
2022-09-23T17:07:05.865Z,101429.41
2022-09-23T17:09:09.926Z,101434.75
2022-09-23T17:11:14.521Z,101431.34
2022-09-23T17:13:18.406Z,101430.53
2022-09-23T17:15:22.132Z,101419.91
2022-09-23T17:17:26.031Z,101429.63
2022-09-23T17:19:29.791Z,101427.88
2022-09-23T17:21:35.250Z,101428.78
2022-09-23T17:23:38.878Z,101423.50
2022-09-23T17:25:48.736Z,101433.44
2022-09-23T17:27:52.725Z,101433.53
2022-09-23T17:29:56.929Z,101427.34
2022-09-23T17:32:00.631Z,101432.78
2022-09-23T17:34:04.762Z,101432.03
2022-09-23T17:36:10.102Z,101432.88
2022-09-23T17:38:15.592Z,101428.50
2022-09-23T17:40:19.292Z,101430.31
2022-09-23T17:42:24.453Z,101432.13
2022-09-23T17:44:28.177Z,101436.59
2022-09-23T17:46:32.845Z,101439.34
2022-09-23T17:48:38.392Z,101434.25
2022-09-23T17:50:42.748Z,101442.34
2022-09-23T17:52:46.649Z,101445.94
2022-09-23T17:54:53.955Z,101448.72
2022-09-23T17:56:57.957Z,101446.16
2022-09-23T17:59:03.590Z,101450.63
2022-09-23T18:01:11.504Z,101448.16
2022-09-23T18:03:22.266Z,101442.00
2022-09-23T18:05:25.960Z,101448.38
2022-09-23T18:07:29.811Z,101456.38
2022-09-23T18:09:33.465Z,101454.66
2022-09-23T18:11:41.118Z,101458.25
2022-09-23T18:13:49.039Z,101457.41
2022-09-23T18:15:53.363Z,101460.06
2022-09-23T18:17:57.396Z,101456.56
2022-09-23T18:20:01.073Z,101457.41
2022-09-23T18:22:04.816Z,101456.56
2022-09-23T18:24:31.324Z,101465.41
2022-09-23T18:26:34.300Z,101474.34
2022-09-23T18:28:40.480Z,101475.28
2022-09-23T18:30:54.454Z,101469.97
2022-09-23T18:32:59.380Z,101484.25
2022-09-23T18:35:03.210Z,101482.53
2022-09-23T18:37:15.300Z,101481.69
2022-09-23T18:39:19.875Z,101481.03
2022-09-23T18:41:24.203Z,101480.47
2022-09-23T18:43:37.564Z,101483.13
2022-09-23T18:45:55.476Z,101484.16
2022-09-23T18:48:16.346Z,101487.81
2022-09-23T18:50:37.596Z,101487.13
2022-09-23T18:52:41.447Z,101486.47
2022-09-23T18:54:45.124Z,101490.28
2022-09-23T18:56:49.578Z,101492.94
2022-09-23T18:58:55.550Z,101501.34
2022-09-23T19:01:07.103Z,101497.16
2022-09-23T19:03:11.456Z,101498.09
2022-09-23T19:05:16.362Z,101494.03
2022-09-23T19:07:20.435Z,101494.13
2022-09-23T19:09:24.389Z,101495.28
2022-09-23T19:11:28.116Z,101502.47
2022-09-23T19:13:32.084Z,101503.63
2022-09-23T19:15:35.953Z,101511.59
2022-09-23T19:17:41.753Z,101505.59
2022-09-23T19:19:46.395Z,101513.69
2022-09-23T19:21:49.968Z,101503.16
2022-09-23T19:23:55.793Z,101511.03
2022-09-23T19:26:03.396Z,101506.69
2022-09-23T19:28:08.531Z,101510.09
2022-09-23T19:30:13.921Z,101505.59
2022-09-23T19:32:17.692Z,101512.66
2022-09-23T19:34:26.236Z,101515.22
2022-09-23T19:36:33.403Z,101515.09
2022-09-23T19:38:37.542Z,101518.63
2022-09-23T19:40:41.380Z,101517.69
2022-09-23T19:42:45.379Z,101521.28
2022-09-23T19:44:50.587Z,101521.41
2022-09-23T19:46:57.058Z,101520.53
2022-09-23T19:49:03.391Z,101525.84
2022-09-23T19:51:08.524Z,101531.16
2022-09-23T19:53:13.172Z,101532.88
2022-09-23T19:55:17.371Z,101524.16
2022-09-23T19:57:21.630Z,101525.00
2022-09-23T19:59:26.588Z,101531.16
2022-09-23T20:01:32.153Z,101528.50
2022-09-23T20:03:36.306Z,101525.00
2022-09-23T20:05:40.989Z,101531.16
2022-09-23T20:07:46.390Z,101526.81
2022-09-23T20:09:50.066Z,101537.44
2022-09-23T20:11:53.927Z,101536.56
2022-09-23T20:14:01.884Z,101533.06
2022-09-23T20:16:10.544Z,101536.69
2022-09-23T20:18:14.264Z,101538.66
2022-09-23T20:20:18.214Z,101538.75
2022-09-23T20:22:32.974Z,101536.88
2022-09-23T20:24:38.573Z,101542.38
2022-09-23T20:27:00.319Z,101542.47
2022-09-23T20:29:04.498Z,101547.03
2022-09-23T20:31:09.888Z,101555.75
2022-09-23T20:33:14.940Z,101549.78
2022-09-23T20:35:18.534Z,101552.44
2022-09-23T20:37:24.766Z,101546.34
2022-09-23T20:39:29.251Z,101552.44
2022-09-23T20:41:37.975Z,101552.34
2022-09-23T20:43:44.062Z,101557.00
2022-09-23T20:45:51.617Z,101552.63
2022-09-23T20:47:56.163Z,101559.75
2022-09-23T20:49:59.798Z,101558.13
2022-09-23T20:52:04.036Z,101556.50
2022-09-23T20:54:08.212Z,101557.38
2022-09-23T20:56:12.263Z,101556.50
2022-09-23T20:58:17.829Z,101560.97
2022-09-23T21:00:21.628Z,101565.44
2022-09-23T21:02:28.031Z,101566.47
2022-09-23T21:04:32.442Z,101560.28
2022-09-23T21:06:36.896Z,101574.47
2022-09-23T21:08:41.310Z,101568.47
2022-09-23T21:10:46.235Z,101569.50
2022-09-23T21:12:51.534Z,101577.47
2022-09-23T21:14:56.798Z,101573.03
2022-09-23T21:17:01.014Z,101567.78
2022-09-23T21:19:05.878Z,101563.44
2022-09-23T21:21:12.605Z,101567.22
2022-09-23T21:23:16.760Z,101567.38
2022-09-23T21:25:29.073Z,101568.53
2022-09-23T21:27:33.738Z,101574.97
2022-09-23T21:29:38.117Z,101576.00
2022-09-23T21:31:43.428Z,101569.31
2022-09-23T21:33:47.006Z,101570.25
2022-09-23T21:35:51.847Z,101571.47
2022-09-23T21:37:55.533Z,101569.19
2022-09-23T21:40:16.451Z,101565.09
2022-09-23T21:42:20.450Z,101566.22
2022-09-23T21:44:24.261Z,101571.78
2022-09-23T21:46:29.261Z,101567.59
2022-09-23T21:48:36.153Z,101575.84
2022-09-23T21:50:41.269Z,101574.19
2022-09-23T21:52:45.099Z,101573.59
2022-09-23T21:54:49.207Z,101578.31
2022-09-23T21:56:52.940Z,101573.19
2022-09-23T21:58:57.921Z,101578.69
2022-09-23T22:01:03.168Z,101573.56
2022-09-23T22:03:07.890Z,101579.00
2022-09-23T22:05:12.996Z,101577.31
2022-09-23T22:07:16.907Z,101573.97
2022-09-23T22:09:22.893Z,101577.66
2022-09-23T22:11:44.872Z,101576.94
2022-09-23T22:13:48.952Z,101579.88
2022-09-23T22:15:52.589Z,101581.91
2022-09-23T22:17:57.603Z,101586.66
2022-09-23T22:20:01.750Z,101587.56
2022-09-23T22:22:13.407Z,101584.13
2022-09-23T22:24:17.555Z,101580.72
2022-09-23T22:26:21.682Z,101587.91
2022-09-23T22:28:43.093Z,101581.06
2022-09-23T22:31:04.140Z,101581.50
2022-09-23T22:33:09.619Z,101578.31
2022-09-23T22:35:17.932Z,101579.56
2022-09-23T22:37:27.350Z,101582.56
2022-09-23T22:39:32.341Z,101588.16
2022-09-23T22:43:58.717Z,101590.72
2022-09-23T22:46:02.831Z,101589.84
2022-09-23T22:48:07.071Z,101597.03
2022-09-23T22:50:14.043Z,101601.47
2022-09-23T22:52:24.599Z,101596.19
2022-09-23T22:54:34.024Z,101596.19
2022-09-23T22:56:38.174Z,101600.59
2022-09-23T22:58:42.086Z,101593.81
2022-09-23T23:00:46.267Z,101601.91
2022-09-23T23:02:50.165Z,101602.09
2022-09-23T23:04:56.419Z,101597.78
2022-09-23T23:07:00.156Z,101598.81
2022-09-23T23:09:04.089Z,101603.41
2022-09-23T23:11:11.845Z,101597.47
2022-09-23T23:13:16.755Z,101599.44
2022-09-23T23:15:21.030Z,101603.09
2022-09-23T23:17:24.883Z,101601.28
2022-09-23T23:19:28.530Z,101599.56
2022-09-23T23:21:32.902Z,101595.16
2022-09-23T23:23:40.262Z,101590.69
2022-09-23T23:25:44.623Z,101599.56
2022-09-23T23:27:49.883Z,101585.47
2022-09-23T23:29:53.600Z,101592.41
2022-09-23T23:31:57.375Z,101585.41
2022-09-23T23:34:01.376Z,101584.47
2022-09-23T23:36:05.457Z,101593.25
2022-09-23T23:38:12.749Z,101593.25
2022-09-23T23:40:20.336Z,101594.13
2022-09-23T23:42:24.267Z,101586.19
2022-09-23T23:44:30.748Z,101586.19
2022-09-23T23:46:34.999Z,101590.53
2022-09-23T23:48:39.818Z,101586.94
2022-09-23T23:50:43.550Z,101587.75
2022-09-23T23:52:47.187Z,101585.00
2022-09-23T23:54:51.045Z,101587.66
2022-09-23T23:56:54.960Z,101584.94
2022-09-23T23:59:00.639Z,101584.00
